Pagina principale
METAR-TAF:

METAR-TAF

Aeroporti :

Aeroporto Internazionale di Yap

Yap, Micronesia

latitudine: 09-29N, longitudine: 138-05E, altezza: 28 m

Osservazione

Il bollettino è stato emesso 37 minuti fa, alle 12:53 UTC
Vento calmo
Temperature 26°C
Umidità 94%
Pressione 1012 hPa
Visibilità: 19.3 km
Poco nuvoloso ad un'altezza di 1600 ft, Cumulo congesto.
Nubi sparse ad un'altezza di 13000 ft
Nuvoloso ad un'altezza di 30000 ft

METAR: PTYA 191253Z 00000KT 12SM FEW016TCU SCT130 BKN300 26/25 A2987 RMK TCU SE SLP115 T02640249

Ora: 23:30 (13:30 UTC)

Previsione

Il bollettino è stato emesso 2 ore e 2 minuti fa, alle 11:28 UTC
Previsione valida dal 19 alle 12 UTC al 20 alle 12 UTC
Vento 5 kt da direzioni variabili
Visibilità: 10 km
Poco nuvoloso ad un'altezza di 1800 ft
Nubi sparse ad un'altezza di 13000 ft
rovesci nelle vicinanze

TAF: PTYA 191128Z 1912/2012 VRB05KT P6SM VCSH FEW018 SCT130

Osservazioni e previsioni meteorologiche di più di 4000 aeroporti (messaggi METAR e TAF).

Le stazioni disponibili sono rappresentate dai dischi gialli e rossi sulla carta.

Puntare il mouse per vedere il nome della stazione.

Clicca sopra per visualizzare le osservazioni e previsioni meteorologiche.

Per cambiare la mappa : fare clic sui pulsanti verdi con una croce nera per ingrandire, il pulsante verde con un trattino per diminuire, o sulla freccia verde per le mappe adiacenti.


METAR-TAF: